createdAt,value
2022-10-17T00:07:53.284Z,15.6
2022-10-17T00:19:53.278Z,15.5
2022-10-17T00:43:53.232Z,15.5
2022-10-17T00:55:53.281Z,15.5
2022-10-17T01:07:53.163Z,15.6
2022-10-17T01:19:53.226Z,15.6
2022-10-17T01:31:53.271Z,15.6
2022-10-17T01:43:53.280Z,15.6
2022-10-17T01:55:53.328Z,15.7
2022-10-17T02:07:54.802Z,15.8
2022-10-17T02:19:53.280Z,15.9
2022-10-17T02:31:53.168Z,16.1
2022-10-17T02:43:53.170Z,16.0
2022-10-17T02:55:53.246Z,15.9
2022-10-17T03:07:53.275Z,15.8
2022-10-17T03:19:53.170Z,15.6
2022-10-17T03:31:53.285Z,15.3
2022-10-17T03:43:53.162Z,15.1
2022-10-17T03:55:53.285Z,14.9
2022-10-17T04:07:53.167Z,14.9
2022-10-17T04:19:53.284Z,14.9
2022-10-17T04:31:53.165Z,15.0
2022-10-17T04:43:53.167Z,14.8
2022-10-17T04:55:53.253Z,14.6
2022-10-17T05:07:53.162Z,14.4
2022-10-17T05:19:53.164Z,14.4
2022-10-17T05:31:53.202Z,14.4
2022-10-17T05:43:53.168Z,14.5
2022-10-17T05:55:53.253Z,14.6
2022-10-17T06:07:55.090Z,14.7
2022-10-17T06:19:53.300Z,14.9
2022-10-17T06:31:53.175Z,15.6
2022-10-17T06:43:53.174Z,15.9
2022-10-17T06:55:53.162Z,16.1
2022-10-17T07:07:53.255Z,16.6
2022-10-17T07:19:53.275Z,16.9
2022-10-17T07:31:53.234Z,17.4
2022-10-17T07:43:53.172Z,17.3
2022-10-17T07:55:53.284Z,17.3
2022-10-17T08:07:53.217Z,17.6
2022-10-17T08:19:53.171Z,17.9
2022-10-17T08:31:58.526Z,17.8
2022-10-17T08:43:53.256Z,18.0
2022-10-17T08:55:53.276Z,18.3
2022-10-17T09:07:53.246Z,18.6
2022-10-17T09:19:53.167Z,19.1
2022-10-17T09:31:53.196Z,19.0
2022-10-17T09:43:53.379Z,19.2
2022-10-17T09:55:53.252Z,19.4
2022-10-17T10:07:53.285Z,19.9
2022-10-17T10:19:53.176Z,20.3
2022-10-17T10:31:53.239Z,20.4
2022-10-17T10:43:53.167Z,20.6
2022-10-17T10:55:53.256Z,21.2
2022-10-17T11:07:53.276Z,21.0
2022-10-17T11:19:53.183Z,20.8
2022-10-17T11:31:53.169Z,21.3
2022-10-17T11:43:53.287Z,20.9
2022-10-17T11:55:53.259Z,20.7
2022-10-17T12:07:53.253Z,20.9
2022-10-17T12:19:53.286Z,20.9
2022-10-17T12:31:53.272Z,20.9
2022-10-17T12:43:53.315Z,20.7
2022-10-17T12:55:53.169Z,20.6
2022-10-17T13:07:53.288Z,20.5
2022-10-17T13:19:53.256Z,20.6
2022-10-17T13:31:53.362Z,20.6
2022-10-17T13:43:53.285Z,20.6
2022-10-17T13:56:09.362Z,20.5
2022-10-17T14:08:10.546Z,20.4
2022-10-17T14:20:05.860Z,20.3
2022-10-17T14:31:53.283Z,20.2
2022-10-17T14:43:53.277Z,20.2
2022-10-17T14:55:53.221Z,20.1
2022-10-17T15:07:53.234Z,19.9
2022-10-17T15:19:53.177Z,19.8
2022-10-17T15:31:53.235Z,19.7
2022-10-17T15:43:53.251Z,19.5
2022-10-17T15:55:53.245Z,19.3
2022-10-17T16:07:53.231Z,19.3
2022-10-17T16:19:53.167Z,19.2
2022-10-17T16:31:53.165Z,19.1
2022-10-17T16:43:53.274Z,19.0
2022-10-17T16:55:53.167Z,18.7
2022-10-17T17:07:53.170Z,18.6
2022-10-17T17:19:53.174Z,18.6
2022-10-17T17:31:53.166Z,18.3
2022-10-17T17:43:53.160Z,18.1
2022-10-17T17:55:53.249Z,18.0
2022-10-17T18:07:53.168Z,18.0
2022-10-17T18:19:53.166Z,17.9
2022-10-17T18:31:53.169Z,17.7
2022-10-17T18:43:53.168Z,17.6
2022-10-17T18:55:53.165Z,17.6
2022-10-17T19:07:53.161Z,17.7
2022-10-17T19:19:53.163Z,17.7
2022-10-17T19:31:53.222Z,17.6
2022-10-17T19:43:53.166Z,17.6
2022-10-17T19:55:53.164Z,17.6
2022-10-17T20:07:53.166Z,17.5
2022-10-17T20:19:53.162Z,17.4
2022-10-17T20:31:53.167Z,17.2
2022-10-17T20:43:53.168Z,17.1
2022-10-17T20:55:53.273Z,16.8
2022-10-17T21:07:53.326Z,16.8
2022-10-17T21:19:53.281Z,16.4
2022-10-17T21:31:53.177Z,16.0
2022-10-17T21:43:53.221Z,15.9
2022-10-17T21:55:53.252Z,15.9
2022-10-17T22:07:53.165Z,15.9
2022-10-17T22:19:53.411Z,16.0
2022-10-17T22:31:53.170Z,15.9
2022-10-17T22:43:53.160Z,15.9
2022-10-17T22:55:53.282Z,15.8
2022-10-17T23:07:53.258Z,15.7
2022-10-17T23:19:55.564Z,15.7
2022-10-17T23:31:53.165Z,15.6
2022-10-17T23:43:53.288Z,15.6
2022-10-17T23:55:53.247Z,15.6
